Time;durP1;ratioP1;P1;durP2;ratioP2;P2;SDS_P1;SDS_P2;PMS_P1;PMS_P2;Temp;Humidity;BMP_temperature;BMP_pressure;BME280_temperature;BME280_humidity;BME280_pressure;Samples;Min_cycle;Max_cycle;Signal;HPM_P1;HPM_P2
2021/08/24 00:00:41;;;;;;;;;;;;;;;18.03;85.40;99994.91;5010160;28;19925;-78
2021/08/24 00:03:06;;;;;;;;;;;;;;;18.08;85.97;99992.94;4993626;28;19918;-76
2021/08/24 00:05:32;;;;;;;;;;;;;;;18.15;88.65;99992.59;5011434;28;20440;-77
2021/08/24 00:07:58;;;;;;;;;;;;;;;18.12;90.67;99986.66;5012429;28;19922;-77
2021/08/24 00:10:24;;;;;;;;;;;;;;;18.05;87.68;99982.66;5007561;28;19923;-76
2021/08/24 00:12:50;;;;;;;;;;;;;;;17.97;86.67;99989.09;5009784;28;19926;-77
2021/08/24 00:15:15;;;;;;;;;;;;;;;17.97;86.50;99996.91;5010278;28;19925;-77
2021/08/24 00:17:40;;;;;;;;;;;;;;;18.10;88.29;99991.09;5010055;28;19960;-77
2021/08/24 00:20:06;;;;;;;;;;;;;;;18.01;88.45;99999.34;5010317;28;19953;-77
2021/08/24 00:22:32;;;;;;;;;;;;;;;17.98;88.61;99995.97;5013381;28;19953;-77
2021/08/24 00:24:57;;;;;;;;;;;;;;;17.94;90.00;99999.63;5009355;28;19961;-77
2021/08/24 00:27:22;;;;;;;;;;;;;;;17.90;90.48;99999.84;4992616;28;20393;-77
2021/08/24 00:29:48;;;;;;;;;;;;;;;17.87;91.58;99995.63;5013023;28;19921;-77
2021/08/24 00:32:13;;;;;;;;;;;;;;;17.83;88.53;99998.44;5011830;28;19971;-77
2021/08/24 00:34:41;;;;;;;;;;;;;;;17.76;86.80;99996.06;4993298;28;19918;-77
2021/08/24 00:37:06;;;;;;;;;;;;;;;17.60;84.55;100005.50;5009654;28;19985;-77
2021/08/24 00:39:32;;;;;;;;;;;;;;;17.69;88.63;100005.09;5008680;28;19921;-77
2021/08/24 00:41:57;;;;;;;;;;;;;;;17.66;89.26;100009.59;4994224;28;19926;-77
2021/08/24 00:44:22;;;;;;;;;;;;;;;17.63;88.33;100001.91;5008115;28;19936;-77
2021/08/24 00:46:48;;;;;;;;;;;;;;;17.56;89.08;100010.03;4992566;28;19918;-77
2021/08/24 00:49:18;;;;;;;;;;;;;;;17.54;86.66;100004.03;5009893;28;19969;-78
2021/08/24 00:51:44;;;;;;;;;;;;;;;17.46;88.44;100002.69;4996962;28;20847;-77
2021/08/24 00:54:17;;;;;;;;;;;;;;;17.45;90.19;100001.00;5011717;28;19944;-77
2021/08/24 00:56:44;;;;;;;;;;;;;;;17.40;90.12;100000.34;5009002;28;19917;-77
2021/08/24 00:59:09;;;;;;;;;;;;;;;17.29;87.63;100008.63;5008672;28;19920;-77
2021/08/24 01:01:35;;;;;;;;;;;;;;;17.33;89.35;100002.34;4994200;28;19925;-77
2021/08/24 01:04:00;;;;;;;;;;;;;;;17.29;90.53;100000.81;4991967;28;20388;-77
2021/08/24 01:06:44;;;;;;;;;;;;;;;16.78;90.97;99999.50;4993475;28;19968;-77
2021/08/24 01:09:10;;;;;;;;;;;;;;;16.69;94.50;100000.72;4992914;28;20662;-77
2021/08/24 01:12:01;;;;;;;;;;;;;;;16.66;93.48;100011.25;4992665;28;19921;-77
2021/08/24 01:14:38;;;;;;;;;;;;;;;16.66;94.34;100003.44;5010392;28;19975;-77
2021/08/24 01:17:08;;;;;;;;;;;;;;;16.33;99.62;99996.09;4995663;28;19921;-77
2021/08/24 01:19:52;;;;;;;;;;;;;;;16.62;99.88;100004.47;5010073;28;19921;-77
2021/08/24 01:22:21;;;;;;;;;;;;;;;16.69;94.74;100005.91;4995716;28;20218;-77
2021/08/24 01:24:48;;;;;;;;;;;;;;;16.96;97.76;100009.16;4996509;28;19924;-78
2021/08/24 01:27:17;;;;;;;;;;;;;;;17.02;97.56;100000.25;4993879;28;20043;-77
2021/08/24 01:30:01;;;;;;;;;;;;;;;16.92;94.53;100008.44;5007057;28;20606;-77
2021/08/24 01:32:46;;;;;;;;;;;;;;;16.84;94.03;99999.28;4994695;28;19917;-78
2021/08/24 01:35:25;;;;;;;;;;;;;;;16.87;91.93;100006.94;4995511;28;20569;-77
2021/08/24 01:38:09;;;;;;;;;;;;;;;16.85;92.77;100006.16;5005388;28;19917;-77
2021/08/24 01:40:34;;;;;;;;;;;;;;;16.84;94.97;100005.31;4994577;28;19926;-78
2021/08/24 01:42:59;;;;;;;;;;;;;;;16.82;94.19;100003.69;5008958;28;20282;-77
2021/08/24 01:45:26;;;;;;;;;;;;;;;16.76;95.08;100003.91;5008383;28;19914;-77
2021/08/24 01:47:51;;;;;;;;;;;;;;;16.66;94.85;100006.03;5008465;28;20116;-77
2021/08/24 01:50:33;;;;;;;;;;;;;;;16.55;94.85;100003.88;5006980;28;19977;-77
2021/08/24 01:53:03;;;;;;;;;;;;;;;16.53;96.20;100005.69;5007124;28;19941;-77
2021/08/24 01:55:30;;;;;;;;;;;;;;;16.55;93.88;100009.06;5008290;28;19982;-77
2021/08/24 01:57:57;;;;;;;;;;;;;;;16.16;95.86;100007.16;4992243;28;19917;-77
2021/08/24 02:00:22;;;;;;;;;;;;;;;16.13;96.50;100001.25;5009059;28;19914;-77
2021/08/24 02:03:01;;;;;;;;;;;;;;;15.75;100.00;100001.78;5010554;28;19960;-77
2021/08/24 02:05:35;;;;;;;;;;;;;;;15.78;100.00;100011.19;5009476;28;19961;-77
2021/08/24 02:08:03;;;;;;;;;;;;;;;15.60;100.00;100016.16;4993327;28;19936;-78
2021/08/24 02:10:28;;;;;;;;;;;;;;;15.78;100.00;100012.06;5011104;28;19972;-77
2021/08/24 02:12:54;;;;;;;;;;;;;;;15.42;100.00;100016.81;5008907;28;19929;-77
2021/08/24 02:15:22;;;;;;;;;;;;;;;15.68;100.00;100015.88;5006845;28;19917;-77
2021/08/24 02:17:48;;;;;;;;;;;;;;;15.58;100.00;100014.53;5006657;28;20013;-77
2021/08/24 02:20:15;;;;;;;;;;;;;;;16.07;99.59;100012.69;5010415;28;19997;-77
2021/08/24 02:22:41;;;;;;;;;;;;;;;16.19;96.26;100008.78;5014855;28;19917;-77
2021/08/24 02:25:11;;;;;;;;;;;;;;;15.67;100.00;100014.19;5013274;28;19979;-77
2021/08/24 02:27:38;;;;;;;;;;;;;;;15.71;100.00;100012.34;4997833;28;19929;-77
2021/08/24 02:30:04;;;;;;;;;;;;;;;15.54;100.00;100011.19;5012455;28;20433;-77
2021/08/24 02:32:31;;;;;;;;;;;;;;;15.79;100.00;100018.09;5011668;28;20016;-77
2021/08/24 02:35:17;;;;;;;;;;;;;;;15.93;99.42;100015.00;5013778;28;20353;-76
2021/08/24 02:37:45;;;;;;;;;;;;;;;16.10;100.00;100022.97;4995398;28;20019;-77
2021/08/24 02:40:30;;;;;;;;;;;;;;;15.62;95.16;100021.28;5011257;28;19974;-77
2021/08/24 02:43:02;;;;;;;;;;;;;;;15.71;99.17;100020.97;4997751;28;19961;-77
2021/08/24 02:45:32;;;;;;;;;;;;;;;15.49;100.00;100020.88;4986765;28;20382;-77
2021/08/24 02:47:57;;;;;;;;;;;;;;;15.39;100.00;100017.75;5012171;28;20192;-77
2021/08/24 02:50:23;;;;;;;;;;;;;;;15.47;100.00;100018.34;5012052;28;20021;-77
2021/08/24 02:52:48;;;;;;;;;;;;;;;15.44;100.00;100021.06;5011737;28;19925;-77
2021/08/24 02:55:13;;;;;;;;;;;;;;;15.39;100.00;100032.47;5012569;28;20440;-77
2021/08/24 02:57:39;;;;;;;;;;;;;;;15.41;100.00;100028.09;5012292;28;19985;-79
2021/08/24 03:00:05;;;;;;;;;;;;;;;15.58;100.00;100028.34;5011700;28;19924;-77
2021/08/24 03:02:30;;;;;;;;;;;;;;;15.53;100.00;100029.41;5011072;28;20331;-77
2021/08/24 03:04:56;;;;;;;;;;;;;;;15.79;100.00;100029.34;5013120;28;20156;-77
2021/08/24 03:07:26;;;;;;;;;;;;;;;15.78;98.33;100024.19;5010696;28;19941;-77
2021/08/24 03:09:51;;;;;;;;;;;;;;;15.90;100.00;100026.34;5011966;28;19917;-78
2021/08/24 03:12:36;;;;;;;;;;;;;;;15.96;100.00;100031.28;4994937;28;19926;-78
2021/08/24 03:15:07;;;;;;;;;;;;;;;15.95;100.00;100029.59;4997621;28;19914;-78
2021/08/24 03:17:34;;;;;;;;;;;;;;;15.88;99.23;100023.78;5013781;28;20451;-77
2021/08/24 03:20:00;;;;;;;;;;;;;;;15.79;97.07;100034.53;5011885;28;19917;-79
2021/08/24 03:22:26;;;;;;;;;;;;;;;15.77;100.00;100025.94;5012828;28;20404;-78
2021/08/24 03:24:51;;;;;;;;;;;;;;;15.63;100.00;100033.38;5011914;28;19924;-78
2021/08/24 03:27:16;;;;;;;;;;;;;;;15.59;100.00;100035.22;5013383;28;19924;-78
2021/08/24 03:29:54;;;;;;;;;;;;;;;15.51;100.00;100028.59;4996420;28;19922;-78
2021/08/24 03:32:19;;;;;;;;;;;;;;;15.37;98.63;100032.56;5012107;28;19914;-78
2021/08/24 03:34:45;;;;;;;;;;;;;;;15.44;99.93;100026.25;4992687;28;20300;-78
2021/08/24 03:37:10;;;;;;;;;;;;;;;15.43;97.49;100032.31;4996567;28;19918;-78
2021/08/24 03:39:35;;;;;;;;;;;;;;;15.57;98.35;100033.59;4996395;28;19918;-78
2021/08/24 03:42:01;;;;;;;;;;;;;;;15.57;96.94;100036.19;5012452;28;19964;-77
2021/08/24 03:44:26;;;;;;;;;;;;;;;15.57;98.03;100033.59;5008400;28;19921;-78
2021/08/24 03:46:52;;;;;;;;;;;;;;;15.48;97.11;100030.41;5010896;28;20304;-78
2021/08/24 03:49:17;;;;;;;;;;;;;;;15.45;98.94;100037.47;5012520;28;19917;-78
2021/08/24 03:51:42;;;;;;;;;;;;;;;15.16;99.51;100036.72;5010646;28;19917;-78
2021/08/24 03:54:08;;;;;;;;;;;;;;;15.20;100.00;100040.91;5011978;28;19967;-78
2021/08/24 03:56:33;;;;;;;;;;;;;;;15.29;98.91;100039.75;4997528;28;19959;-78
2021/08/24 03:58:58;;;;;;;;;;;;;;;15.23;96.20;100037.34;5010100;28;19928;-78
2021/08/24 04:01:24;;;;;;;;;;;;;;;15.22;95.86;100039.13;4995343;28;20039;-78
2021/08/24 04:03:49;;;;;;;;;;;;;;;15.15;98.43;100039.38;5011015;28;19918;-78
2021/08/24 04:06:14;;;;;;;;;;;;;;;14.99;98.12;100042.50;5010174;28;19918;-77
2021/08/24 04:08:39;;;;;;;;;;;;;;;15.16;99.48;100043.66;5010240;28;19972;-78
2021/08/24 04:11:06;;;;;;;;;;;;;;;15.38;100.00;100047.22;5010888;28;20822;-78
2021/08/24 04:13:31;;;;;;;;;;;;;;;15.42;100.00;100048.81;5010739;28;20023;-78
2021/08/24 04:15:56;;;;;;;;;;;;;;;15.25;98.47;100048.53;5010565;28;20342;-78
2021/08/24 04:18:22;;;;;;;;;;;;;;;15.14;99.44;100048.06;4994203;28;19922;-78
2021/08/24 04:20:47;;;;;;;;;;;;;;;14.91;100.00;100047.06;4996189;28;20336;-78
2021/08/24 04:23:13;;;;;;;;;;;;;;;14.71;100.00;100052.06;5009916;28;19925;-77
2021/08/24 04:25:38;;;;;;;;;;;;;;;14.83;100.00;100054.28;5010805;28;20007;-77
2021/08/24 04:28:04;;;;;;;;;;;;;;;14.81;100.00;100050.88;5008265;28;20658;-77
2021/08/24 04:30:29;;;;;;;;;;;;;;;15.09;100.00;100058.59;4992752;28;19924;-78
2021/08/24 04:32:55;;;;;;;;;;;;;;;15.06;100.00;100054.34;5008424;28;19952;-78
2021/08/24 04:35:20;;;;;;;;;;;;;;;15.02;97.23;100057.94;5010079;28;20651;-78
2021/08/24 04:37:45;;;;;;;;;;;;;;;14.90;100.00;100055.78;5011985;28;19921;-78
2021/08/24 04:40:11;;;;;;;;;;;;;;;14.91;100.00;100065.22;5009189;28;19968;-78
2021/08/24 04:42:36;;;;;;;;;;;;;;;15.00;99.02;100059.75;5010914;28;20009;-78
2021/08/24 04:45:02;;;;;;;;;;;;;;;15.22;100.00;100057.28;5011740;28;21082;-78
2021/08/24 04:47:28;;;;;;;;;;;;;;;15.21;100.00;100065.97;4989873;28;19924;-78
2021/08/24 04:49:53;;;;;;;;;;;;;;;15.16;100.00;100067.84;5009023;28;19922;-77
2021/08/24 04:52:18;;;;;;;;;;;;;;;15.09;95.96;100063.78;5010094;28;19968;-77
2021/08/24 04:54:44;;;;;;;;;;;;;;;14.98;97.15;100077.09;4993674;28;20608;-78
2021/08/24 04:57:09;;;;;;;;;;;;;;;14.89;100.00;100077.41;5007788;28;19918;-76
2021/08/24 04:59:34;;;;;;;;;;;;;;;15.10;100.00;100078.47;4993180;28;19917;-77
2021/08/24 05:02:00;;;;;;;;;;;;;;;15.29;100.00;100076.09;5007345;28;20052;-77
2021/08/24 05:04:25;;;;;;;;;;;;;;;15.37;100.00;100076.69;5008219;28;20952;-77
2021/08/24 05:06:52;;;;;;;;;;;;;;;15.38;100.00;100080.97;5008679;28;19921;-79
2021/08/24 05:09:18;;;;;;;;;;;;;;;15.32;95.54;100085.50;5010086;28;19957;-79
2021/08/24 05:11:43;;;;;;;;;;;;;;;15.46;100.00;100086.75;4994153;28;19976;-79
2021/08/24 05:14:08;;;;;;;;;;;;;;;15.43;100.00;100086.00;4995235;28;20068;-79
2021/08/24 05:16:35;;;;;;;;;;;;;;;15.49;100.00;100085.78;4996651;28;20337;-79
2021/08/24 05:19:00;;;;;;;;;;;;;;;15.49;100.00;100088.38;5010176;28;19913;-79
2021/08/24 05:21:25;;;;;;;;;;;;;;;15.32;97.47;100086.34;4991672;28;20444;-78
2021/08/24 05:23:51;;;;;;;;;;;;;;;15.29;96.99;100088.22;5007015;28;19913;-78
2021/08/24 05:26:17;;;;;;;;;;;;;;;15.22;97.93;100092.78;5006747;28;19924;-79
2021/08/24 05:28:43;;;;;;;;;;;;;;;15.36;98.41;100087.09;5006240;28;19921;-78
2021/08/24 05:31:08;;;;;;;;;;;;;;;15.29;98.30;100094.25;5004872;28;19918;-78
2021/08/24 05:33:33;;;;;;;;;;;;;;;15.33;97.12;100088.06;5004880;28;19914;-78
2021/08/24 05:35:59;;;;;;;;;;;;;;;15.81;100.00;100095.06;5007042;28;19920;-78
2021/08/24 05:38:25;;;;;;;;;;;;;;;15.94;100.00;100089.41;4991079;28;19924;-78
2021/08/24 05:40:50;;;;;;;;;;;;;;;15.97;97.53;100092.75;5006058;28;19961;-79
2021/08/24 05:43:15;;;;;;;;;;;;;;;16.24;100.00;100101.28;5007130;28;19962;-78
2021/08/24 05:45:41;;;;;;;;;;;;;;;16.23;100.00;100102.16;5004864;28;19917;-78
2021/08/24 05:48:06;;;;;;;;;;;;;;;16.21;97.56;100108.34;5005157;28;19918;-80
2021/08/24 05:50:31;;;;;;;;;;;;;;;16.28;93.73;100112.38;5005912;28;19940;-78
2021/08/24 05:52:57;;;;;;;;;;;;;;;16.16;90.90;100111.09;5008812;28;19925;-78
2021/08/24 05:55:22;;;;;;;;;;;;;;;16.44;94.91;100110.06;4996966;28;19961;-79
2021/08/24 05:57:47;;;;;;;;;;;;;;;16.55;100.00;100110.50;5012290;28;19922;-79
2021/08/24 06:00:13;;;;;;;;;;;;;;;16.47;100.00;100115.16;5012909;28;20377;-79
2021/08/24 06:02:39;;;;;;;;;;;;;;;16.12;100.00;100108.69;4995727;28;20927;-79
2021/08/24 06:05:05;;;;;;;;;;;;;;;16.40;100.00;100113.66;5011964;28;19976;-79
2021/08/24 06:07:30;;;;;;;;;;;;;;;16.56;99.67;100116.53;5009021;28;19918;-78
2021/08/24 06:09:55;;;;;;;;;;;;;;;16.33;94.42;100107.03;5008698;28;19966;-79
2021/08/24 06:12:21;;;;;;;;;;;;;;;16.52;100.00;100113.22;4992623;28;19922;-78
2021/08/24 06:14:47;;;;;;;;;;;;;;;16.60;100.00;100118.94;5011054;28;19918;-78
2021/08/24 06:17:12;;;;;;;;;;;;;;;16.45;100.00;100117.81;5016921;28;20340;-78
2021/08/24 06:19:37;;;;;;;;;;;;;;;15.98;100.00;100114.38;5014445;28;20028;-78
2021/08/24 06:22:03;;;;;;;;;;;;;;;16.63;100.00;100121.47;5013590;28;20397;-78
2021/08/24 06:24:30;;;;;;;;;;;;;;;16.44;100.00;100115.25;5014656;28;19966;-78
2021/08/24 06:26:56;;;;;;;;;;;;;;;15.47;100.00;100122.19;5013520;28;19968;-78
2021/08/24 06:29:21;;;;;;;;;;;;;;;16.57;100.00;100121.69;5012985;28;20425;-78
2021/08/24 06:31:48;;;;;;;;;;;;;;;15.36;100.00;100129.47;5010633;28;19948;-78
2021/08/24 06:34:13;;;;;;;;;;;;;;;15.92;100.00;100123.25;5011316;28;20373;-78
2021/08/24 06:36:39;;;;;;;;;;;;;;;16.39;100.00;100122.41;5011093;28;19918;-78
2021/08/24 06:39:05;;;;;;;;;;;;;;;16.11;100.00;100128.63;5011189;28;19940;-78
2021/08/24 06:41:30;;;;;;;;;;;;;;;16.62;100.00;100118.91;5015292;28;19917;-77
2021/08/24 06:43:55;;;;;;;;;;;;;;;16.64;100.00;100130.09;5017175;28;20055;-79
2021/08/24 06:46:21;;;;;;;;;;;;;;;17.03;100.00;100116.44;4998329;28;19917;-80
2021/08/24 06:48:46;;;;;;;;;;;;;;;16.66;100.00;100123.94;4994512;28;19918;-78
2021/08/24 06:51:11;;;;;;;;;;;;;;;17.24;100.00;100118.19;4995825;28;19917;-78
2021/08/24 06:53:37;;;;;;;;;;;;;;;17.07;100.00;100121.47;4996908;28;19924;-79
2021/08/24 06:56:03;;;;;;;;;;;;;;;16.17;100.00;100125.81;5012445;28;20011;-78
2021/08/24 06:58:28;;;;;;;;;;;;;;;17.36;100.00;100124.63;5014158;28;19936;-78
2021/08/24 07:00:54;;;;;;;;;;;;;;;16.68;100.00;100123.88;5012093;28;20585;-77
2021/08/24 07:03:19;;;;;;;;;;;;;;;16.75;100.00;100125.31;5001238;28;19925;-78
2021/08/24 07:05:46;;;;;;;;;;;;;;;17.14;100.00;100122.91;5009983;28;19917;-78
2021/08/24 07:08:11;;;;;;;;;;;;;;;17.51;100.00;100123.94;5010650;28;20448;-78
2021/08/24 07:10:37;;;;;;;;;;;;;;;18.06;98.89;100123.31;5012721;28;20000;-77
2021/08/24 07:13:02;;;;;;;;;;;;;;;17.55;99.81;100122.06;5010202;28;20321;-77
2021/08/24 07:15:27;;;;;;;;;;;;;;;17.60;100.00;100119.28;5010693;28;20019;-78
2021/08/24 07:17:54;;;;;;;;;;;;;;;18.05;99.49;100113.84;4995607;28;20373;-78
2021/08/24 07:20:20;;;;;;;;;;;;;;;17.95;99.79;100126.44;5012308;28;19914;-78
2021/08/24 07:22:46;;;;;;;;;;;;;;;18.08;99.58;100123.28;5013529;28;19980;-77
2021/08/24 07:25:12;;;;;;;;;;;;;;;17.39;100.00;100131.47;4994835;28;20388;-78
2021/08/24 07:27:37;;;;;;;;;;;;;;;18.36;100.00;100130.69;5010625;28;19913;-78
2021/08/24 07:30:04;;;;;;;;;;;;;;;18.68;94.12;100123.09;5017332;28;20065;-78
2021/08/24 07:32:29;;;;;;;;;;;;;;;18.27;95.21;100129.34;5006462;28;19996;-79
2021/08/24 07:34:54;;;;;;;;;;;;;;;18.05;96.74;100128.63;5013735;28;20277;-78
2021/08/24 07:37:20;;;;;;;;;;;;;;;18.56;94.61;100127.97;5010977;28;19921;-79
2021/08/24 07:39:45;;;;;;;;;;;;;;;18.45;91.52;100119.84;5012133;28;19917;-78
2021/08/24 07:42:11;;;;;;;;;;;;;;;18.33;99.21;100131.66;5012580;28;19978;-77
2021/08/24 07:44:36;;;;;;;;;;;;;;;18.72;91.39;100128.09;5012374;28;19914;-77
2021/08/24 07:47:06;;;;;;;;;;;;;;;18.00;96.80;100133.22;5010354;28;20378;-75
2021/08/24 07:49:34;;;;;;;;;;;;;;;17.52;100.00;100133.47;5009504;28;19924;-77
2021/08/24 07:51:59;;;;;;;;;;;;;;;17.62;94.78;100133.09;5011323;28;19929;-77
2021/08/24 07:54:25;;;;;;;;;;;;;;;17.50;100.00;100134.47;5014488;28;20317;-77
2021/08/24 07:56:50;;;;;;;;;;;;;;;18.97;91.34;100132.19;5015878;28;19924;-78
2021/08/24 07:59:16;;;;;;;;;;;;;;;19.03;86.31;100131.88;5012848;28;19914;-78
2021/08/24 08:01:41;;;;;;;;;;;;;;;17.96;93.46;100138.53;5013931;28;19922;-77
2021/08/24 08:04:06;;;;;;;;;;;;;;;19.31;89.72;100138.34;5011543;28;19961;-78
2021/08/24 08:06:32;;;;;;;;;;;;;;;19.44;92.60;100147.28;5019293;28;19996;-78
2021/08/24 08:08:57;;;;;;;;;;;;;;;19.70;85.49;100139.91;5007891;28;19918;-78
2021/08/24 08:11:23;;;;;;;;;;;;;;;18.60;93.99;100149.56;5008335;28;19929;-79
2021/08/24 08:13:48;;;;;;;;;;;;;;;19.45;88.50;100146.34;5009833;28;19922;-79
2021/08/24 08:16:13;;;;;;;;;;;;;;;18.70;94.54;100152.59;5014631;28;19917;-78
2021/08/24 08:18:39;;;;;;;;;;;;;;;19.05;93.16;100150.94;5011300;28;19958;-78
2021/08/24 08:21:04;;;;;;;;;;;;;;;18.49;92.11;100162.25;4996113;28;20373;-78
2021/08/24 08:23:29;;;;;;;;;;;;;;;19.07;88.37;100149.09;5010226;28;19929;-77
2021/08/24 08:25:55;;;;;;;;;;;;;;;18.99;80.56;100143.41;5007711;28;19921;-77
2021/08/24 08:28:20;;;;;;;;;;;;;;;18.96;82.11;100140.94;5015768;28;19914;-78
2021/08/24 08:30:46;;;;;;;;;;;;;;;19.90;83.03;100139.72;5009739;28;19940;-78
2021/08/24 08:33:11;;;;;;;;;;;;;;;19.49;83.32;100147.88;5010978;28;19918;-78
2021/08/24 08:35:37;;;;;;;;;;;;;;;19.64;83.30;100149.72;5009160;28;19936;-77
2021/08/24 08:38:02;;;;;;;;;;;;;;;19.52;79.32;100160.78;5009888;28;20416;-78
2021/08/24 08:40:35;;;;;;;;;;;;;;;19.94;80.48;100149.09;5011586;28;20021;-78
2021/08/24 08:43:04;;;;;;;;;;;;;;;20.00;77.48;100151.38;5009132;28;19921;-76
2021/08/24 08:45:32;;;;;;;;;;;;;;;21.69;77.74;100147.19;5009311;28;19968;-78
2021/08/24 08:48:01;;;;;;;;;;;;;;;20.40;73.65;100151.84;5011584;28;19917;-79
2021/08/24 08:50:29;;;;;;;;;;;;;;;19.20;78.29;100155.41;5010157;28;19944;-78
2021/08/24 08:53:07;;;;;;;;;;;;;;;20.11;80.07;100156.03;4991174;28;19917;-79
2021/08/24 08:55:43;;;;;;;;;;;;;;;19.27;82.29;100160.31;4997469;28;19933;-77
2021/08/24 08:58:12;;;;;;;;;;;;;;;20.35;73.12;100161.72;5012822;28;19941;-78
2021/08/24 09:00:50;;;;;;;;;;;;;;;19.86;69.87;100153.84;4995729;28;19988;-78
2021/08/24 09:03:17;;;;;;;;;;;;;;;20.44;71.03;100156.00;5011584;28;19972;-79
2021/08/24 09:05:43;;;;;;;;;;;;;;;21.37;73.09;100146.47;5011876;28;19921;-78
2021/08/24 09:08:09;;;;;;;;;;;;;;;21.04;74.85;100144.84;5007873;28;19922;-79
2021/08/24 09:10:48;;;;;;;;;;;;;;;19.91;74.05;100154.50;5006419;28;19972;-78
2021/08/24 09:13:16;;;;;;;;;;;;;;;20.99;67.46;100146.88;4991984;28;19925;-78
2021/08/24 09:15:49;;;;;;;;;;;;;;;20.53;69.15;100145.97;4994022;28;20344;-78
2021/08/24 09:18:16;;;;;;;;;;;;;;;20.74;61.93;100152.66;5012272;28;19961;-78
2021/08/24 09:20:44;;;;;;;;;;;;;;;19.88;60.99;100144.16;5012711;28;19913;-79
2021/08/24 09:23:11;;;;;;;;;;;;;;;21.22;61.40;100153.41;5012517;28;20263;-78
2021/08/24 09:25:54;;;;;;;;;;;;;;;20.80;60.95;100151.44;4993811;28;19918;-79
2021/08/24 09:28:25;;;;;;;;;;;;;;;20.98;66.93;100160.06;5014669;28;20721;-78
2021/08/24 09:30:50;;;;;;;;;;;;;;;21.47;67.16;100147.63;5013891;28;19914;-78
2021/08/24 09:33:16;;;;;;;;;;;;;;;21.64;63.27;100143.97;5015339;28;19920;-79
2021/08/24 09:35:46;;;;;;;;;;;;;;;22.64;52.93;100152.78;5016797;28;19922;-78
2021/08/24 09:38:18;;;;;;;;;;;;;;;20.59;59.88;100143.03;5019477;28;19925;-78
2021/08/24 09:40:45;;;;;;;;;;;;;;;20.71;60.88;100152.84;5015550;28;19925;-79
2021/08/24 09:43:25;;;;;;;;;;;;;;;20.89;61.04;100149.19;5018961;28;20367;-78
2021/08/24 09:46:04;;;;;;;;;;;;;;;21.07;61.34;100147.31;4998806;28;19924;-78
2021/08/24 09:48:31;;;;;;;;;;;;;;;20.81;59.31;100148.75;5011002;28;19924;-78
2021/08/24 09:51:15;;;;;;;;;;;;;;;20.84;62.39;100151.19;5020833;28;19913;-80
2021/08/24 09:53:40;;;;;;;;;;;;;;;22.05;58.61;100153.75;5018143;28;19952;-78
2021/08/24 09:56:07;;;;;;;;;;;;;;;21.69;64.28;100157.69;5001696;28;19957;-78
2021/08/24 09:58:36;;;;;;;;;;;;;;;21.65;59.16;100157.97;5000927;28;19988;-77
2021/08/24 10:01:12;;;;;;;;;;;;;;;23.74;60.46;100152.53;5006072;28;19921;-77
2021/08/24 10:03:38;;;;;;;;;;;;;;;22.52;53.50;100147.38;5016065;28;20017;-78
2021/08/24 10:06:18;;;;;;;;;;;;;;;21.10;59.38;100154.13;5014687;28;19925;-77
2021/08/24 10:08:44;;;;;;;;;;;;;;;22.20;53.82;100156.38;5002763;28;19937;-79
2021/08/24 10:11:12;;;;;;;;;;;;;;;21.71;54.61;100160.19;5016193;28;19926;-78
2021/08/24 10:13:39;;;;;;;;;;;;;;;22.68;64.43;100151.66;5019838;28;20270;-78
2021/08/24 10:16:04;;;;;;;;;;;;;;;21.81;55.41;100147.41;4998607;28;19925;-78
2021/08/24 10:18:30;;;;;;;;;;;;;;;21.31;57.74;100152.88;5002753;28;19913;-79
2021/08/24 10:20:57;;;;;;;;;;;;;;;23.33;56.87;100143.91;5024380;28;19913;-78
2021/08/24 10:23:39;;;;;;;;;;;;;;;23.80;53.36;100139.84;5016043;28;19921;-78
2021/08/24 10:26:06;;;;;;;;;;;;;;;22.95;54.41;100152.50;5018029;28;20001;-77
2021/08/24 10:28:49;;;;;;;;;;;;;;;22.76;57.71;100150.22;5018532;28;19960;-78
2021/08/24 10:31:33;;;;;;;;;;;;;;;22.40;52.16;100142.91;5013806;28;20348;-77
2021/08/24 10:34:09;;;;;;;;;;;;;;;22.65;55.76;100136.06;4999979;28;19918;-78
2021/08/24 10:36:45;;;;;;;;;;;;;;;21.71;57.34;100145.34;5015421;28;19972;-78
2021/08/24 10:39:16;;;;;;;;;;;;;;;22.23;52.43;100140.47;5009887;28;19914;-77
2021/08/24 10:41:43;;;;;;;;;;;;;;;22.48;51.84;100139.78;4997117;28;20436;-78
2021/08/24 10:44:23;;;;;;;;;;;;;;;22.50;51.87;100144.00;5013111;28;19920;-78
2021/08/24 10:46:52;;;;;;;;;;;;;;;23.27;49.65;100146.94;5009219;28;19918;-77
2021/08/24 10:49:17;;;;;;;;;;;;;;;22.30;54.32;100132.13;5014909;28;20285;-78
2021/08/24 10:51:45;;;;;;;;;;;;;;;22.83;52.49;100144.56;5002035;28;19967;-79
2021/08/24 10:54:17;;;;;;;;;;;;;;;21.44;53.92;100146.94;4996845;28;19917;-78
2021/08/24 10:56:43;;;;;;;;;;;;;;;22.09;49.37;100147.38;5013501;28;20008;-78
2021/08/24 10:59:08;;;;;;;;;;;;;;;24.26;48.21;100142.84;5001466;28;19958;-78
2021/08/24 11:01:39;;;;;;;;;;;;;;;23.68;47.35;100132.78;4999431;28;19921;-78
2021/08/24 11:04:13;;;;;;;;;;;;;;;24.26;50.57;100127.06;5001898;28;19960;-78
2021/08/24 11:06:47;;;;;;;;;;;;;;;23.47;43.60;100135.09;5014615;28;19917;-78
2021/08/24 11:09:16;;;;;;;;;;;;;;;24.85;46.04;100137.72;4999832;28;20501;-78
2021/08/24 11:11:47;;;;;;;;;;;;;;;22.98;45.63;100131.25;4998001;28;19933;-77
2021/08/24 11:14:13;;;;;;;;;;;;;;;22.28;47.51;100138.41;4998849;28;19992;-77
2021/08/24 11:16:56;;;;;;;;;;;;;;;22.98;46.36;100128.63;5000591;28;19953;-77
2021/08/24 11:19:37;;;;;;;;;;;;;;;23.97;42.91;100129.94;4999732;28;19914;-77
2021/08/24 11:22:22;;;;;;;;;;;;;;;23.87;42.06;100115.75;5016914;28;19956;-77
2021/08/24 11:25:06;;;;;;;;;;;;;;;25.14;41.85;100118.94;5003422;28;19921;-78
2021/08/24 11:27:40;;;;;;;;;;;;;;;23.10;43.30;100120.91;4999877;28;19917;-77
2021/08/24 11:30:17;;;;;;;;;;;;;;;24.47;40.15;100115.00;4996802;28;19997;-79
2021/08/24 11:32:43;;;;;;;;;;;;;;;26.11;42.54;100120.28;5010715;28;19918;-77
2021/08/24 11:35:17;;;;;;;;;;;;;;;26.10;39.37;100118.63;5014750;28;20316;-78
2021/08/24 11:37:47;;;;;;;;;;;;;;;25.79;41.13;100118.34;5012519;28;19956;-77
2021/08/24 11:40:14;;;;;;;;;;;;;;;24.96;39.55;100115.88;5011058;28;19968;-78
2021/08/24 11:42:43;;;;;;;;;;;;;;;25.88;40.25;100112.38;5012994;28;19928;-77
2021/08/24 11:45:21;;;;;;;;;;;;;;;24.46;40.80;100113.31;5017821;28;20329;-77
2021/08/24 11:48:06;;;;;;;;;;;;;;;24.00;45.23;100100.78;5012181;28;19921;-77
2021/08/24 11:50:41;;;;;;;;;;;;;;;23.57;43.83;100109.00;4999387;28;19920;-78
2021/08/24 11:53:10;;;;;;;;;;;;;;;24.57;42.55;100102.88;5010889;28;19917;-76
2021/08/24 11:55:39;;;;;;;;;;;;;;;24.42;45.77;100102.13;5013561;28;19921;-77
2021/08/24 11:58:23;;;;;;;;;;;;;;;25.07;46.08;100091.34;5012308;28;19918;-77
2021/08/24 12:00:49;;;;;;;;;;;;;;;23.91;41.61;100096.19;4996595;28;20013;-77
2021/08/24 12:03:15;;;;;;;;;;;;;;;26.08;43.55;100089.69;5010410;28;19918;-78
2021/08/24 12:05:42;;;;;;;;;;;;;;;26.75;42.11;100103.72;5011767;28;19918;-78
2021/08/24 12:08:09;;;;;;;;;;;;;;;25.18;40.01;100100.16;4998945;28;19918;-78
2021/08/24 12:10:55;;;;;;;;;;;;;;;24.71;38.82;100107.13;5000467;28;20358;-78
2021/08/24 12:13:31;;;;;;;;;;;;;;;24.18;40.80;100102.13;4995189;28;20325;-77
2021/08/24 12:16:28;;;;;;;;;;;;;;;25.95;40.53;100098.69;5013109;28;19920;-76
2021/08/24 12:18:54;;;;;;;;;;;;;;;24.54;39.73;100108.38;4998080;28;19913;-78
2021/08/24 12:21:32;;;;;;;;;;;;;;;26.25;40.27;100096.28;5001292;28;20324;-78
2021/08/24 12:23:58;;;;;;;;;;;;;;;27.70;40.27;100100.22;5011978;28;19972;-78
2021/08/24 12:26:27;;;;;;;;;;;;;;;25.21;40.53;100099.09;5010976;28;19918;-77
2021/08/24 12:28:53;;;;;;;;;;;;;;;24.84;40.85;100099.16;4993212;28;19977;-77
2021/08/24 12:31:51;;;;;;;;;;;;;;;26.12;35.82;100092.94;5008971;28;19949;-78
2021/08/24 12:34:28;;;;;;;;;;;;;;;26.14;37.01;100088.38;4988775;28;19918;-78
2021/08/24 12:36:54;;;;;;;;;;;;;;;27.44;43.87;100084.75;5006533;28;19918;-77
2021/08/24 12:39:46;;;;;;;;;;;;;;;26.11;40.60;100093.88;4993985;28;19928;-77
2021/08/24 12:42:22;;;;;;;;;;;;;;;25.13;38.16;100082.97;4996033;28;19928;-78